Time;durP1;ratioP1;P1;durP2;ratioP2;P2;SDS_P1;SDS_P2;PMS_P1;PMS_P2;Temp;Humidity;BMP_temperature;BMP_pressure;BME280_temperature;BME280_humidity;BME280_pressure;Samples;Min_cycle;Max_cycle;Signal;HPM_P1;HPM_P2
2024/03/07 00:01:43;;;;;;;6.50;4.85;;;21.30;74.50;;;;;;4986183;28;20205;-67
2024/03/07 00:04:11;;;;;;;7.15;4.82;;;21.20;74.40;;;;;;4980307;28;20774;-67
2024/03/07 00:06:38;;;;;;;6.20;4.15;;;21.40;74.70;;;;;;4983086;28;20193;-64
2024/03/07 00:09:04;;;;;;;5.90;4.07;;;21.30;74.90;;;;;;4985384;28;20700;-66
2024/03/07 00:11:31;;;;;;;6.30;4.80;;;21.20;74.80;;;;;;4983124;28;20241;-67
2024/03/07 00:13:58;;;;;;;5.55;4.00;;;21.20;74.60;;;;;;4984264;28;20504;-62
2024/03/07 00:16:24;;;;;;;5.30;4.78;;;21.80;75.30;;;;;;4987262;28;20196;-64
2024/03/07 00:18:51;;;;;;;4.80;3.75;;;21.40;74.80;;;;;;4986440;28;20573;-62
2024/03/07 00:21:19;;;;;;;5.53;4.38;;;21.10;74.30;;;;;;4982413;28;20747;-65
2024/03/07 00:23:46;;;;;;;6.47;3.95;;;21.20;74.20;;;;;;4978057;28;20232;-67
2024/03/07 00:26:13;;;;;;;5.07;4.13;;;21.20;74.10;;;;;;4976438;28;20204;-63
2024/03/07 00:28:40;;;;;;;7.65;4.40;;;21.00;74.50;;;;;;4970378;28;20201;-65
2024/03/07 00:31:07;;;;;;;4.90;4.03;;;21.10;74.50;;;;;;4979481;28;20570;-69
2024/03/07 00:33:34;;;;;;;5.30;3.90;;;21.60;74.70;;;;;;4982639;28;20738;-68
2024/03/07 00:36:01;;;;;;;4.95;3.90;;;21.80;75.30;;;;;;4974069;28;20189;-65
2024/03/07 00:38:29;;;;;;;6.28;4.18;;;21.00;74.40;;;;;;4981128;28;20211;-66
2024/03/07 00:40:56;;;;;;;4.40;4.00;;;21.10;75.10;;;;;;4980741;28;20672;-64
2024/03/07 00:43:23;;;;;;;4.45;4.05;;;21.50;75.20;;;;;;4983090;28;20224;-68
2024/03/07 00:45:50;;;;;;;5.82;4.57;;;21.10;74.00;;;;;;4981135;28;20453;-69
2024/03/07 00:48:17;;;;;;;5.53;4.18;;;21.50;75.40;;;;;;4986234;28;20216;-68
2024/03/07 00:50:44;;;;;;;7.40;4.05;;;21.20;74.20;;;;;;4984182;28;20670;-65
2024/03/07 00:53:11;;;;;;;6.13;4.05;;;21.10;74.50;;;;;;4981668;28;20204;-66
2024/03/07 00:55:39;;;;;;;5.65;3.75;;;21.00;74.50;;;;;;4981970;28;20201;-68
2024/03/07 00:58:06;;;;;;;4.93;3.92;;;21.00;74.80;;;;;;4968293;28;20202;-70
2024/03/07 01:00:33;;;;;;;4.97;3.80;;;21.00;74.80;;;;;;4980979;28;20201;-67
2024/03/07 01:02:59;;;;;;;5.38;4.03;;;21.00;74.80;;;;;;4983529;28;20201;-70
2024/03/07 01:05:26;;;;;;;4.00;3.65;;;21.10;74.80;;;;;;4977107;28;20221;-66
2024/03/07 01:07:53;;;;;;;5.25;3.60;;;21.00;74.30;;;;;;4982811;28;20224;-68
2024/03/07 01:10:20;;;;;;;5.32;3.35;;;21.50;75.70;;;;;;4981560;28;21232;-68
2024/03/07 01:12:49;;;;;;;4.07;3.70;;;21.00;74.70;;;;;;4981961;28;20203;-72
2024/03/07 01:15:16;;;;;;;4.60;3.70;;;21.00;74.50;;;;;;4979762;28;20251;-69
2024/03/07 01:17:44;;;;;;;5.10;4.40;;;20.90;74.40;;;;;;4983418;28;20205;-67
2024/03/07 01:20:11;;;;;;;5.00;4.00;;;21.10;75.00;;;;;;4980667;28;20684;-70
2024/03/07 01:22:38;;;;;;;4.93;4.00;;;20.90;74.80;;;;;;4982226;28;20203;-70
2024/03/07 01:25:06;;;;;;;5.07;3.90;;;21.10;74.70;;;;;;4976257;28;20221;-70
2024/03/07 01:27:32;;;;;;;4.15;3.67;;;20.90;74.90;;;;;;4978972;28;20212;-69
2024/03/07 01:30:01;;;;;;;7.13;5.03;;;21.00;75.10;;;;;;4981579;28;20496;-66
2024/03/07 01:32:28;;;;;;;6.50;4.35;;;21.00;75.30;;;;;;4981992;28;20611;-65
2024/03/07 01:34:55;;;;;;;5.53;4.13;;;21.00;76.10;;;;;;4982105;28;20209;-71
2024/03/07 01:37:21;;;;;;;4.78;4.20;;;20.90;76.30;;;;;;4984510;28;20288;-65
2024/03/07 01:39:48;;;;;;;3.72;3.25;;;21.30;76.80;;;;;;4986304;28;20192;-67
2024/03/07 01:42:15;;;;;;;4.63;4.15;;;21.00;76.10;;;;;;4972581;28;20204;-71
2024/03/07 01:44:43;;;;;;;4.78;3.38;;;21.00;76.50;;;;;;4979546;28;21057;-67
2024/03/07 01:47:12;;;;;;;4.07;3.40;;;20.90;75.90;;;;;;4967369;28;20196;-68
2024/03/07 01:49:39;;;;;;;6.00;4.95;;;20.90;75.90;;;;;;4982391;28;20197;-67
2024/03/07 01:52:06;;;;;;;4.43;3.28;;;21.10;75.80;;;;;;4982543;28;20610;-68
2024/03/07 01:54:34;;;;;;;4.40;3.80;;;20.90;76.00;;;;;;4985609;28;20209;-66
2024/03/07 01:57:03;;;;;;;4.28;3.55;;;21.30;76.30;;;;;;4980786;28;20208;-66
2024/03/07 01:59:30;;;;;;;4.50;3.50;;;20.80;75.90;;;;;;4982948;28;20204;-65
2024/03/07 02:01:57;;;;;;;3.22;2.92;;;20.90;75.70;;;;;;4982246;28;20295;-70
2024/03/07 02:04:25;;;;;;;4.80;3.50;;;20.40;74.80;;;;;;4986313;28;20213;-64
2024/03/07 02:06:53;;;;;;;4.40;4.00;;;21.10;75.60;;;;;;4975288;28;20205;-67
2024/03/07 02:09:20;;;;;;;4.53;3.65;;;20.90;75.60;;;;;;4984147;28;20574;-69
2024/03/07 02:11:48;;;;;;;4.20;3.80;;;20.80;75.00;;;;;;4987049;28;20217;-70
2024/03/07 02:14:16;;;;;;;4.07;3.50;;;21.40;75.90;;;;;;4984797;28;20224;-65
2024/03/07 02:16:43;;;;;;;5.38;3.88;;;20.90;76.00;;;;;;4990783;28;20202;-66
2024/03/07 02:19:15;;;;;;;5.45;3.10;;;20.80;75.70;;;;;;4982165;28;20208;-69
2024/03/07 02:21:43;;;;;;;4.70;4.15;;;21.30;76.20;;;;;;4967897;28;20755;-66
2024/03/07 02:24:11;;;;;;;5.18;4.30;;;21.20;76.00;;;;;;4978922;28;20228;-74
2024/03/07 02:26:39;;;;;;;6.03;3.97;;;20.90;75.90;;;;;;4972775;28;20201;-71
2024/03/07 02:29:06;;;;;;;5.03;3.53;;;20.90;75.50;;;;;;4986335;28;20596;-68
2024/03/07 02:31:36;;;;;;;3.45;3.15;;;21.30;76.10;;;;;;4982184;28;20283;-69
2024/03/07 02:34:03;;;;;;;4.70;3.80;;;21.10;75.50;;;;;;4985954;28;22559;-68
2024/03/07 02:36:30;;;;;;;4.10;3.70;;;20.80;75.30;;;;;;4982847;28;20212;-69
2024/03/07 02:38:59;;;;;;;5.43;4.03;;;20.80;75.10;;;;;;4982220;28;20588;-72
2024/03/07 02:41:25;;;;;;;4.57;4.03;;;20.90;74.70;;;;;;4984151;28;21199;-67
2024/03/07 02:43:52;;;;;;;5.43;3.88;;;20.80;75.10;;;;;;4977593;28;20197;-65
2024/03/07 02:46:19;;;;;;;4.15;3.42;;;20.80;74.90;;;;;;4985076;28;20193;-65
2024/03/07 02:48:46;;;;;;;5.20;4.30;;;21.10;75.30;;;;;;4987623;28;20196;-66
2024/03/07 02:51:13;;;;;;;4.45;3.85;;;21.30;75.30;;;;;;4988330;28;20201;-69
2024/03/07 02:53:39;;;;;;;3.85;3.53;;;20.60;74.70;;;;;;4988845;28;20387;-70
2024/03/07 02:56:09;;;;;;;4.32;3.58;;;20.80;75.40;;;;;;4983702;28;20197;-66
2024/03/07 02:58:36;;;;;;;5.32;3.90;;;20.70;75.10;;;;;;4992916;28;20200;-65
2024/03/07 03:01:04;;;;;;;4.43;4.00;;;21.10;75.40;;;;;;4985078;28;20716;-65
2024/03/07 03:03:32;;;;;;;4.15;3.17;;;20.70;75.40;;;;;;4989800;28;20294;-65
2024/03/07 03:05:59;;;;;;;4.30;3.70;;;20.70;75.30;;;;;;4980572;28;20802;-72
2024/03/07 03:08:28;;;;;;;5.03;3.33;;;20.80;76.10;;;;;;4984389;28;20197;-71
2024/03/07 03:10:56;;;;;;;4.63;3.80;;;20.70;75.10;;;;;;4985004;28;20201;-66
2024/03/07 03:13:24;;;;;;;3.55;3.25;;;20.70;75.30;;;;;;4975254;28;20205;-67
2024/03/07 03:15:51;;;;;;;3.95;3.30;;;20.70;75.60;;;;;;4981297;28;20681;-66
2024/03/07 03:18:19;;;;;;;4.03;3.10;;;20.70;75.60;;;;;;4985117;28;20203;-65
2024/03/07 03:20:48;;;;;;;4.18;3.78;;;21.10;76.00;;;;;;4979919;28;20660;-66
2024/03/07 03:23:14;;;;;;;3.58;3.28;;;20.80;75.70;;;;;;4977989;28;20205;-68
2024/03/07 03:25:41;;;;;;;3.78;2.92;;;20.60;75.60;;;;;;4972352;28;20232;-69
2024/03/07 03:28:09;;;;;;;5.80;4.25;;;20.80;75.20;;;;;;4982883;28;20213;-70
2024/03/07 03:30:38;;;;;;;8.40;3.65;;;20.80;75.60;;;;;;4982586;28;20286;-70
2024/03/07 03:33:06;;;;;;;4.65;3.63;;;20.70;75.70;;;;;;4982649;28;20203;-65
2024/03/07 03:35:33;;;;;;;3.83;3.42;;;20.70;75.30;;;;;;4981453;28;20299;-66
2024/03/07 03:38:00;;;;;;;4.63;3.50;;;20.90;75.20;;;;;;4977207;28;20207;-66
2024/03/07 03:40:26;;;;;;;5.40;3.45;;;20.70;75.50;;;;;;4980036;28;20201;-67
2024/03/07 03:42:53;;;;;;;4.40;3.28;;;20.60;75.00;;;;;;4988680;28;20211;-69
2024/03/07 03:45:20;;;;;;;4.70;3.45;;;20.80;75.30;;;;;;4986116;28;20212;-64
2024/03/07 03:47:48;;;;;;;4.57;4.05;;;20.60;75.10;;;;;;4987549;28;20635;-65
2024/03/07 03:50:15;;;;;;;4.13;3.75;;;20.70;74.80;;;;;;4984444;28;20208;-65
2024/03/07 03:52:42;;;;;;;4.43;3.38;;;21.30;75.90;;;;;;4989463;28;20196;-69
2024/03/07 03:55:11;;;;;;;3.67;3.38;;;20.70;75.70;;;;;;4986972;28;20204;-68
2024/03/07 03:57:39;;;;;;;4.22;3.75;;;20.60;74.80;;;;;;4985831;28;20955;-67
2024/03/07 04:00:12;;;;;;;3.90;3.28;;;20.60;74.70;;;;;;4985925;28;20208;-68
2024/03/07 04:02:39;;;;;;;4.78;3.40;;;20.70;75.30;;;;;;4987508;28;20213;-68
2024/03/07 04:05:09;;;;;;;4.47;3.50;;;20.70;75.10;;;;;;4984521;28;20716;-65
2024/03/07 04:07:36;;;;;;;6.43;3.97;;;20.60;75.00;;;;;;4975762;28;20672;-66
2024/03/07 04:10:04;;;;;;;3.75;3.40;;;20.80;75.20;;;;;;4971312;28;20320;-69
2024/03/07 04:12:31;;;;;;;3.65;3.35;;;20.60;75.10;;;;;;4986998;28;20232;-66
2024/03/07 04:14:57;;;;;;;4.00;3.10;;;20.60;75.40;;;;;;4985099;28;20775;-67
2024/03/07 04:17:24;;;;;;;5.45;3.75;;;20.70;75.10;;;;;;4987938;28;20319;-65
2024/03/07 04:19:51;;;;;;;4.85;3.20;;;20.60;75.40;;;;;;4975125;28;20495;-71
2024/03/07 04:22:20;;;;;;;4.30;3.65;;;20.60;75.10;;;;;;4976129;28;20196;-66
2024/03/07 04:24:53;;;;;;;4.47;3.42;;;20.70;75.50;;;;;;4982046;28;20239;-68
2024/03/07 04:27:20;;;;;;;4.47;3.78;;;20.80;75.50;;;;;;4971861;28;20204;-70
2024/03/07 04:29:48;;;;;;;3.70;3.35;;;21.10;75.70;;;;;;4985055;28;20205;-66
2024/03/07 04:32:16;;;;;;;4.13;3.60;;;20.70;75.70;;;;;;4984928;28;20673;-66
2024/03/07 04:34:44;;;;;;;4.63;3.60;;;20.70;74.90;;;;;;4984856;28;20209;-67
2024/03/07 04:37:11;;;;;;;4.25;3.17;;;20.70;74.80;;;;;;4976746;28;20217;-68
2024/03/07 04:39:39;;;;;;;3.25;2.83;;;20.70;75.50;;;;;;4981295;28;20286;-67
2024/03/07 04:42:07;;;;;;;4.65;3.72;;;20.60;75.30;;;;;;4980537;28;20204;-67
2024/03/07 04:44:36;;;;;;;3.58;3.28;;;20.70;75.30;;;;;;4987916;28;20205;-68
2024/03/07 04:47:04;;;;;;;3.90;3.50;;;20.60;74.60;;;;;;4980159;28;20920;-68
2024/03/07 04:49:32;;;;;;;4.82;3.35;;;21.20;75.70;;;;;;4968588;28;20381;-69
2024/03/07 04:52:00;;;;;;;3.75;3.45;;;20.60;75.10;;;;;;4974261;28;20276;-68
2024/03/07 04:54:28;;;;;;;5.60;3.60;;;20.80;76.50;;;;;;4983557;28;20769;-68
2024/03/07 04:56:56;;;;;;;3.47;3.17;;;20.60;75.10;;;;;;4982626;28;20193;-66
2024/03/07 04:59:23;;;;;;;4.75;3.67;;;20.70;75.40;;;;;;4981259;28;20205;-67
2024/03/07 05:01:50;;;;;;;3.95;3.00;;;20.60;75.30;;;;;;4983302;28;20200;-69
2024/03/07 05:04:18;;;;;;;4.50;4.10;;;20.70;75.60;;;;;;4981727;28;20197;-67
2024/03/07 05:06:47;;;;;;;4.15;3.75;;;20.50;74.70;;;;;;4978458;28;20315;-67
2024/03/07 05:09:22;;;;;;;3.30;3.00;;;20.60;74.80;;;;;;4982660;28;20205;-67
2024/03/07 05:11:50;;;;;;;3.70;3.30;;;20.60;75.00;;;;;;4984959;28;20192;-67
2024/03/07 05:14:18;;;;;;;3.22;2.92;;;20.70;74.30;;;;;;4986649;28;20707;-65
2024/03/07 05:16:45;;;;;;;4.03;3.03;;;20.60;74.90;;;;;;4983272;28;20201;-67
2024/03/07 05:19:11;;;;;;;3.70;3.33;;;20.60;75.00;;;;;;4984945;28;20201;-70
2024/03/07 05:21:40;;;;;;;3.45;3.03;;;20.50;74.90;;;;;;4980524;28;20201;-66
2024/03/07 05:24:07;;;;;;;4.55;3.50;;;20.80;74.80;;;;;;4984098;28;20202;-66
2024/03/07 05:26:37;;;;;;;6.53;3.38;;;20.60;74.60;;;;;;4975568;28;20232;-66
2024/03/07 05:29:07;;;;;;;3.50;3.20;;;20.90;75.10;;;;;;4983811;28;20258;-67
2024/03/07 05:31:36;;;;;;;4.30;3.83;;;20.60;75.10;;;;;;4982119;28;20336;-66
2024/03/07 05:34:04;;;;;;;4.35;3.42;;;20.50;75.10;;;;;;4982536;28;20204;-67
2024/03/07 05:36:31;;;;;;;3.20;2.90;;;20.40;74.50;;;;;;4976788;28;20208;-66
2024/03/07 05:38:59;;;;;;;4.00;3.60;;;21.10;75.00;;;;;;4980982;28;20207;-66
2024/03/07 05:41:28;;;;;;;4.18;3.60;;;20.50;74.70;;;;;;4983227;28;20204;-68
2024/03/07 05:43:54;;;;;;;5.30;4.03;;;20.60;75.40;;;;;;4984872;28;20196;-68
2024/03/07 05:46:21;;;;;;;3.38;3.08;;;20.50;75.20;;;;;;4977648;28;20528;-66
2024/03/07 05:48:51;;;;;;;3.80;3.42;;;20.60;75.30;;;;;;4983539;28;20220;-69
2024/03/07 05:51:18;;;;;;;3.42;3.13;;;20.50;75.10;;;;;;4977885;28;20204;-67
2024/03/07 05:53:45;;;;;;;4.10;3.70;;;20.50;75.50;;;;;;4980225;28;20201;-66
2024/03/07 05:56:12;;;;;;;4.20;3.75;;;20.50;75.00;;;;;;4983058;28;20485;-68
2024/03/07 05:58:39;;;;;;;3.50;3.20;;;20.50;75.00;;;;;;4985159;28;20201;-66
2024/03/07 06:01:08;;;;;;;3.10;2.80;;;20.50;74.80;;;;;;4981341;28;20235;-66
2024/03/07 06:03:34;;;;;;;3.70;3.40;;;20.60;75.40;;;;;;4982592;28;20197;-67
2024/03/07 06:06:04;;;;;;;3.28;3.03;;;20.60;75.30;;;;;;4977641;28;21699;-66
2024/03/07 06:08:31;;;;;;;5.07;3.38;;;20.50;74.90;;;;;;4972926;28;20212;-67
2024/03/07 06:10:59;;;;;;;4.10;3.47;;;20.50;74.90;;;;;;4983323;28;20799;-68
2024/03/07 06:13:25;;;;;;;3.08;2.80;;;20.40;74.70;;;;;;4978761;28;20904;-68
2024/03/07 06:15:52;;;;;;;4.00;3.30;;;20.90;75.80;;;;;;4978445;28;20987;-68
2024/03/07 06:18:19;;;;;;;3.55;3.25;;;20.70;74.80;;;;;;4979660;28;20200;-66
2024/03/07 06:20:45;;;;;;;4.20;3.80;;;20.50;75.10;;;;;;4978676;28;20461;-67
2024/03/07 06:23:16;;;;;;;4.90;3.75;;;20.60;75.40;;;;;;4968778;28;20661;-66
2024/03/07 06:25:47;;;;;;;4.75;3.47;;;20.50;75.00;;;;;;4984331;28;20213;-65
2024/03/07 06:28:14;;;;;;;3.75;3.45;;;20.50;75.10;;;;;;4979865;28;20659;-67
2024/03/07 06:30:42;;;;;;;3.95;3.60;;;20.60;75.00;;;;;;4981212;28;20783;-66
2024/03/07 06:33:09;;;;;;;3.72;3.40;;;21.00;75.10;;;;;;4985033;28;20197;-68
2024/03/07 06:35:36;;;;;;;4.07;3.30;;;20.50;75.10;;;;;;4981116;28;20689;-68
2024/03/07 06:38:04;;;;;;;3.83;3.47;;;20.50;75.20;;;;;;4978782;28;20206;-70
2024/03/07 06:40:32;;;;;;;3.80;3.50;;;20.50;74.70;;;;;;4981341;28;20197;-67
2024/03/07 06:42:59;;;;;;;3.70;3.22;;;20.50;74.90;;;;;;4978780;28;20845;-67
2024/03/07 06:45:26;;;;;;;3.30;3.00;;;21.10;75.70;;;;;;4980660;28;20220;-65
2024/03/07 06:47:53;;;;;;;3.97;3.33;;;20.40;74.70;;;;;;4981363;28;20193;-67
2024/03/07 06:50:21;;;;;;;5.32;3.60;;;20.40;74.70;;;;;;4982168;28;20697;-67
2024/03/07 06:52:48;;;;;;;4.35;2.83;;;20.50;74.40;;;;;;4982297;28;20197;-66
2024/03/07 06:55:16;;;;;;;3.45;3.15;;;20.30;74.10;;;;;;4981055;28;20207;-69
2024/03/07 06:57:45;;;;;;;3.88;3.58;;;20.50;74.30;;;;;;4976255;28;20197;-66
2024/03/07 07:00:14;;;;;;;3.42;3.13;;;20.50;74.80;;;;;;4980375;28;20201;-70
2024/03/07 07:02:41;;;;;;;3.30;3.00;;;20.50;74.60;;;;;;4980265;28;20203;-68
2024/03/07 07:05:10;;;;;;;3.42;3.13;;;20.50;75.20;;;;;;4979948;28;20208;-68
2024/03/07 07:07:37;;;;;;;4.05;2.90;;;20.40;74.80;;;;;;4979927;28;20680;-70
2024/03/07 07:10:09;;;;;;;3.85;3.45;;;20.40;75.10;;;;;;4983063;28;20204;-71
2024/03/07 07:12:36;;;;;;;3.70;3.17;;;20.50;74.00;;;;;;4982394;28;20204;-69
2024/03/07 07:15:05;;;;;;;3.72;3.42;;;20.60;75.00;;;;;;4984942;28;20209;-70
2024/03/07 07:17:31;;;;;;;3.45;3.15;;;20.40;74.00;;;;;;4983457;28;20288;-70
2024/03/07 07:19:59;;;;;;;3.95;3.53;;;20.40;74.60;;;;;;4987209;28;20193;-71
2024/03/07 07:22:26;;;;;;;3.85;3.50;;;20.40;74.60;;;;;;4987163;28;20256;-68
2024/03/07 07:24:52;;;;;;;4.20;3.80;;;20.50;74.80;;;;;;4987913;28;20204;-70
2024/03/07 07:27:19;;;;;;;3.85;3.42;;;20.40;74.60;;;;;;4974395;28;20228;-69
2024/03/07 07:29:46;;;;;;;3.30;2.97;;;20.40;74.50;;;;;;4987516;28;20204;-69
2024/03/07 07:32:14;;;;;;;3.15;2.95;;;20.40;74.80;;;;;;4988592;28;20275;-70
2024/03/07 07:34:42;;;;;;;3.65;2.92;;;20.40;74.30;;;;;;4989201;28;20207;-70
2024/03/07 07:37:10;;;;;;;4.05;3.13;;;20.40;75.10;;;;;;4986676;28;20295;-69
2024/03/07 07:39:36;;;;;;;3.15;2.85;;;20.30;74.70;;;;;;4989111;28;20219;-69
2024/03/07 07:42:04;;;;;;;3.28;3.05;;;21.00;75.30;;;;;;4983621;28;20212;-69
2024/03/07 07:44:30;;;;;;;4.25;3.38;;;20.40;74.80;;;;;;4990364;28;20204;-69
2024/03/07 07:46:56;;;;;;;3.45;2.90;;;20.50;74.80;;;;;;4978856;28;20217;-68
2024/03/07 07:49:24;;;;;;;3.90;3.30;;;20.40;74.80;;;;;;4983072;28;20202;-68
2024/03/07 07:51:53;;;;;;;2.83;2.58;;;20.50;75.10;;;;;;4989229;28;20274;-68
2024/03/07 07:54:20;;;;;;;3.40;3.10;;;20.60;74.50;;;;;;4991950;28;20193;-71
2024/03/07 07:56:47;;;;;;;3.40;3.10;;;20.40;74.20;;;;;;4983176;28;20201;-71
2024/03/07 07:59:14;;;;;;;3.10;2.83;;;20.50;74.70;;;;;;4975459;28;20204;-69
2024/03/07 08:01:42;;;;;;;3.30;2.90;;;20.60;74.90;;;;;;4976805;28;20193;-69
2024/03/07 08:04:11;;;;;;;3.50;3.20;;;20.60;74.70;;;;;;4971334;28;20243;-69
2024/03/07 08:06:39;;;;;;;3.85;3.30;;;20.60;74.80;;;;;;4975380;28;20590;-70
2024/03/07 08:09:09;;;;;;;3.40;3.05;;;20.50;75.40;;;;;;4978035;28;20197;-70
2024/03/07 08:11:36;;;;;;;3.80;3.15;;;20.40;75.60;;;;;;4978301;28;20190;-68
2024/03/07 08:14:03;;;;;;;3.47;3.17;;;20.60;74.50;;;;;;4973070;28;20223;-70
2024/03/07 08:16:30;;;;;;;3.15;2.85;;;20.60;74.50;;;;;;4979412;28;20204;-70
2024/03/07 08:18:57;;;;;;;4.68;2.85;;;21.00;75.50;;;;;;4979217;28;20657;-69
2024/03/07 08:21:24;;;;;;;2.95;2.75;;;20.70;74.50;;;;;;4978838;28;20197;-71
2024/03/07 08:23:52;;;;;;;3.05;2.80;;;20.60;74.70;;;;;;4978505;28;20595;-70
2024/03/07 08:26:19;;;;;;;3.53;3.10;;;20.60;74.20;;;;;;4984129;28;20476;-68
2024/03/07 08:28:45;;;;;;;3.88;2.80;;;20.70;75.00;;;;;;4985430;28;20211;-71
2024/03/07 08:31:12;;;;;;;3.20;2.75;;;20.60;74.50;;;;;;4979931;28;20539;-69
2024/03/07 08:33:39;;;;;;;3.25;2.95;;;20.90;75.30;;;;;;4984767;28;20209;-71
2024/03/07 08:36:09;;;;;;;3.13;2.83;;;20.80;75.20;;;;;;4975326;28;20213;-67
2024/03/07 08:38:37;;;;;;;2.72;2.50;;;20.70;74.10;;;;;;4983455;28;20712;-71
2024/03/07 08:41:05;;;;;;;2.72;2.45;;;20.80;74.60;;;;;;4980596;28;20194;-70
2024/03/07 08:43:33;;;;;;;2.70;2.50;;;21.30;75.30;;;;;;4974383;28;20886;-67
2024/03/07 08:46:00;;;;;;;2.45;2.25;;;20.80;73.90;;;;;;4972636;28;20270;-67
2024/03/07 08:48:26;;;;;;;2.70;2.50;;;20.70;74.80;;;;;;4975115;28;20194;-68
2024/03/07 08:50:53;;;;;;;3.08;2.78;;;20.70;74.40;;;;;;4976797;28;20197;-72
2024/03/07 08:53:20;;;;;;;2.97;2.67;;;20.60;74.80;;;;;;4971621;28;20222;-70
2024/03/07 08:55:46;;;;;;;3.08;2.50;;;20.40;74.30;;;;;;4975583;28;20219;-71
2024/03/07 08:58:15;;;;;;;3.17;2.85;;;20.60;75.20;;;;;;4978577;28;20205;-69
2024/03/07 09:00:41;;;;;;;2.95;2.75;;;20.70;74.90;;;;;;4980710;28;20328;-70
2024/03/07 09:03:10;;;;;;;3.38;3.08;;;20.70;74.40;;;;;;4976161;28;20212;-71
2024/03/07 09:05:37;;;;;;;3.65;3.20;;;20.70;74.60;;;;;;4971688;28;20236;-67
2024/03/07 09:08:05;;;;;;;2.72;2.53;;;20.80;74.90;;;;;;4975823;28;20210;-69
2024/03/07 09:10:32;;;;;;;3.42;2.72;;;20.70;75.30;;;;;;4976912;28;20544;-71
2024/03/07 09:12:59;;;;;;;3.40;3.10;;;20.70;75.30;;;;;;4975816;28;22221;-70
2024/03/07 09:15:28;;;;;;;3.17;2.88;;;20.80;75.10;;;;;;4974097;28;20201;-72
2024/03/07 09:17:54;;;;;;;3.35;3.05;;;20.70;75.30;;;;;;4976946;28;20228;-68
2024/03/07 09:20:21;;;;;;;3.92;3.63;;;20.70;75.40;;;;;;4973849;28;20201;-68
2024/03/07 09:22:50;;;;;;;2.70;2.50;;;21.10;75.30;;;;;;4977895;28;20197;-69
2024/03/07 09:25:18;;;;;;;2.65;2.45;;;20.90;74.90;;;;;;4975833;28;20201;-67
2024/03/07 09:27:45;;;;;;;3.38;2.85;;;20.80;75.20;;;;;;4980024;28;20461;-72
2024/03/07 09:30:14;;;;;;;3.70;3.40;;;20.80;75.40;;;;;;4979931;28;20212;-67
2024/03/07 09:32:43;;;;;;;3.50;3.20;;;20.80;74.70;;;;;;4985640;28;20221;-71
2024/03/07 09:35:13;;;;;;;3.63;3.25;;;21.00;75.60;;;;;;4981148;28;20790;-70
2024/03/07 09:37:41;;;;;;;3.78;3.40;;;20.80;75.20;;;;;;4979181;28;20201;-70
2024/03/07 09:40:09;;;;;;;3.05;2.75;;;20.90;75.20;;;;;;4982694;28;20350;-71
2024/03/07 09:42:42;;;;;;;4.28;3.35;;;20.80;74.80;;;;;;4981564;28;20320;-69
2024/03/07 09:45:14;;;;;;;4.07;3.75;;;20.80;75.30;;;;;;4979439;28;20200;-70
2024/03/07 09:47:43;;;;;;;3.63;3.33;;;20.80;74.60;;;;;;4981037;28;20220;-69
2024/03/07 09:50:10;;;;;;;3.05;2.47;;;20.80;74.30;;;;;;4983151;28;20205;-70
2024/03/07 09:52:37;;;;;;;3.65;3.25;;;20.80;75.30;;;;;;4981978;28;20200;-68
2024/03/07 09:55:05;;;;;;;3.90;3.47;;;21.30;75.50;;;;;;4977691;28;20212;-69
2024/03/07 09:57:35;;;;;;;3.72;3.42;;;20.80;74.20;;;;;;4979992;28;20227;-69
2024/03/07 10:00:03;;;;;;;3.28;2.97;;;20.60;74.40;;;;;;4986924;28;20190;-72
2024/03/07 10:02:33;;;;;;;4.88;3.45;;;20.90;74.00;;;;;;4980978;28;20290;-70
2024/03/07 10:05:02;;;;;;;3.92;3.58;;;20.80;74.00;;;;;;4983925;28;20214;-70
2024/03/07 10:07:29;;;;;;;3.78;3.47;;;20.70;74.10;;;;;;4977882;28;20319;-69
2024/03/07 10:09:59;;;;;;;3.42;3.05;;;20.70;74.80;;;;;;4981446;28;20209;-73
2024/03/07 10:12:26;;;;;;;4.18;2.70;;;20.80;74.20;;;;;;4984518;28;20196;-67
2024/03/07 10:14:57;;;;;;;3.40;3.10;;;20.80;74.50;;;;;;4981139;28;20350;-67
2024/03/07 10:17:25;;;;;;;3.78;3.47;;;20.80;74.00;;;;;;4977747;28;20464;-69
2024/03/07 10:19:52;;;;;;;3.40;3.10;;;20.70;73.70;;;;;;4970379;28;20432;-67
2024/03/07 10:22:21;;;;;;;4.38;3.20;;;20.90;74.40;;;;;;4965879;28;20196;-70
2024/03/07 10:24:51;;;;;;;3.80;3.50;;;20.70;74.00;;;;;;4975662;28;20829;-66
2024/03/07 10:27:20;;;;;;;3.67;3.38;;;21.00;74.30;;;;;;4982760;28;20316;-69
2024/03/07 10:29:47;;;;;;;4.20;3.90;;;21.10;74.30;;;;;;4985788;28;20203;-71
2024/03/07 10:32:14;;;;;;;3.10;2.90;;;20.80;73.80;;;;;;4977305;28;20464;-68
2024/03/07 10:34:46;;;;;;;6.35;5.28;;;21.00;74.00;;;;;;4981321;28;20287;-68
2024/03/07 10:37:16;;;;;;;7.38;5.95;;;21.00;73.70;;;;;;4975320;28;20292;-70
2024/03/07 10:39:44;;;;;;;7.10;6.38;;;20.90;71.60;;;;;;4978407;28;20286;-71
2024/03/07 10:42:15;;;;;;;7.70;5.40;;;20.70;71.30;;;;;;4977647;28;20204;-75
2024/03/07 10:44:48;;;;;;;4.70;3.87;;;21.00;72.20;;;;;;4987273;28;20673;-66
2024/03/07 10:47:17;;;;;;;4.68;3.45;;;20.70;72.80;;;;;;4982978;28;20486;-73
2024/03/07 10:49:58;;;;;;;7.00;4.22;;;21.10;73.10;;;;;;4987547;28;20274;-72
2024/03/07 10:52:31;;;;;;;4.47;4.07;;;20.90;73.10;;;;;;4967756;28;20197;-72
2024/03/07 10:55:10;;;;;;;5.30;4.15;;;20.90;73.10;;;;;;4989611;28;20332;-67
2024/03/07 10:57:47;;;;;;;3.80;3.45;;;21.00;73.90;;;;;;4981512;28;20318;-70
2024/03/07 11:00:29;;;;;;;4.53;3.92;;;20.90;73.70;;;;;;4985785;28;20232;-73
2024/03/07 11:02:57;;;;;;;4.10;3.80;;;20.90;73.60;;;;;;4984770;28;20275;-71
2024/03/07 11:05:29;;;;;;;5.25;3.70;;;21.30;74.10;;;;;;4982938;28;20460;-71
2024/03/07 11:07:58;;;;;;;5.05;3.65;;;20.90;73.60;;;;;;4977207;28;20228;-67
2024/03/07 11:10:27;;;;;;;4.10;3.53;;;20.80;73.50;;;;;;4979891;28;20188;-71
2024/03/07 11:12:55;;;;;;;3.70;3.40;;;21.10;73.60;;;;;;4976711;28;20197;-71
2024/03/07 11:15:26;;;;;;;4.53;4.05;;;21.00;73.10;;;;;;4981661;28;20596;-70
2024/03/07 11:17:54;;;;;;;3.65;3.35;;;20.90;74.80;;;;;;4982324;28;20206;-67
2024/03/07 11:20:22;;;;;;;3.93;3.50;;;20.90;73.50;;;;;;4979659;28;20283;-69
2024/03/07 11:22:50;;;;;;;4.97;3.85;;;21.00;73.80;;;;;;4984498;28;21099;-65
2024/03/07 11:25:19;;;;;;;4.03;3.63;;;20.90;73.40;;;;;;4985651;28;20228;-71
2024/03/07 11:27:55;;;;;;;4.05;3.30;;;20.90;73.80;;;;;;4979936;28;20227;-68
2024/03/07 11:30:22;;;;;;;4.30;3.50;;;21.00;73.90;;;;;;4981072;28;20287;-62
2024/03/07 11:32:50;;;;;;;3.50;3.15;;;21.00;74.20;;;;;;4981041;28;20700;-72
2024/03/07 11:35:22;;;;;;;3.75;3.45;;;21.10;73.90;;;;;;4983671;28;20857;-68
2024/03/07 11:37:49;;;;;;;6.90;3.55;;;20.90;74.30;;;;;;4984818;28;20322;-69
2024/03/07 11:40:43;;;;;;;3.87;3.17;;;21.00;74.20;;;;;;4981546;28;20198;-64
2024/03/07 11:43:13;;;;;;;3.40;3.10;;;21.10;73.70;;;;;;4981256;28;20457;-65
2024/03/07 11:45:44;;;;;;;3.65;3.35;;;21.10;74.20;;;;;;4985848;28;20455;-61
2024/03/07 11:48:12;;;;;;;4.30;3.38;;;21.10;74.20;;;;;;4985826;28;20228;-68
2024/03/07 11:50:39;;;;;;;6.38;3.75;;;21.10;75.60;;;;;;4980674;28;20193;-65
2024/03/07 11:53:07;;;;;;;4.18;3.45;;;21.20;74.60;;;;;;4984314;28;20205;-63
2024/03/07 11:55:41;;;;;;;4.47;3.85;;;21.10;73.80;;;;;;4984276;28;20217;-62
2024/03/07 11:58:08;;;;;;;7.40;3.30;;;21.20;75.30;;;;;;4981830;28;20211;-62
2024/03/07 12:00:42;;;;;;;3.28;2.97;;;21.60;75.30;;;;;;4986330;28;20546;-64
2024/03/07 12:03:13;;;;;;;3.72;3.25;;;21.20;75.10;;;;;;4986437;28;20201;-61
2024/03/07 12:05:40;;;;;;;5.53;3.35;;;21.00;75.30;;;;;;4980397;28;20865;-68
2024/03/07 12:08:09;;;;;;;7.95;3.65;;;21.20;74.40;;;;;;4983961;28;20765;-68
2024/03/07 12:10:38;;;;;;;3.70;3.00;;;21.20;74.40;;;;;;4984195;28;20251;-61
2024/03/07 12:13:06;;;;;;;8.30;4.50;;;21.60;75.60;;;;;;4985229;28;20468;-65
2024/03/07 12:15:34;;;;;;;3.60;3.30;;;21.70;75.20;;;;;;4988320;28;20459;-66
2024/03/07 12:18:08;;;;;;;4.38;3.65;;;21.20;74.80;;;;;;4986936;28;20565;-67
2024/03/07 12:20:36;;;;;;;4.50;3.15;;;21.10;74.80;;;;;;4987990;28;20204;-68
2024/03/07 12:23:05;;;;;;;8.10;3.87;;;21.20;74.50;;;;;;4980147;28;20201;-65
2024/03/07 12:25:32;;;;;;;5.70;3.17;;;21.20;74.90;;;;;;4982755;28;20463;-70
2024/03/07 12:28:10;;;;;;;6.57;3.13;;;21.20;74.70;;;;;;4980657;28;21096;-71
2024/03/07 12:30:49;;;;;;;3.85;2.92;;;21.20;74.70;;;;;;4982239;28;20520;-70
2024/03/07 12:33:18;;;;;;;5.13;3.70;;;21.20;74.50;;;;;;4981264;28;20335;-68
2024/03/07 12:35:47;;;;;;;3.47;3.17;;;21.20;74.50;;;;;;4986304;28;20995;-69
2024/03/07 12:38:15;;;;;;;4.23;3.27;;;21.20;75.00;;;;;;4980629;28;20475;-72
2024/03/07 12:40:42;;;;;;;4.43;3.53;;;21.10;75.50;;;;;;4985590;28;20815;-69
2024/03/07 12:43:17;;;;;;;4.70;3.63;;;21.20;74.50;;;;;;4979132;28;20472;-71
2024/03/07 12:45:46;;;;;;;7.53;4.03;;;21.20;74.20;;;;;;4980953;28;20456;-70
2024/03/07 12:48:14;;;;;;;3.25;2.95;;;21.20;74.20;;;;;;4987353;28;20484;-71
2024/03/07 12:50:42;;;;;;;3.90;3.50;;;21.10;73.40;;;;;;4983710;28;20201;-71
2024/03/07 12:53:11;;;;;;;4.27;3.87;;;21.20;73.80;;;;;;4983084;28;20477;-72